Time;durP1;ratioP1;P1;durP2;ratioP2;P2;SDS_P1;SDS_P2;PMS_P1;PMS_P2;Temp;Humidity;BMP_temperature;BMP_pressure;BME280_temperature;BME280_humidity;BME280_pressure;Samples;Min_cycle;Max_cycle;Signal;HPM_P1;HPM_P2
2022/11/04 00:01:14;;;;;;;9.07;3.25;;;12.40;99.90;;;;;;5012806;28;20049;-73
2022/11/04 00:03:39;;;;;;;5.05;2.47;;;12.40;99.90;;;;;;5026132;28;20350;-73
2022/11/04 00:06:06;;;;;;;9.02;3.13;;;12.40;99.90;;;;;;5012288;28;20050;-75
2022/11/04 00:08:35;;;;;;;6.65;3.28;;;12.30;99.90;;;;;;5012699;28;20042;-74
2022/11/04 00:13:45;;;;;;;6.13;2.67;;;12.40;99.90;;;;;;5007198;28;20479;-74
2022/11/04 00:18:56;;;;;;;9.82;3.35;;;12.40;99.90;;;;;;5011973;28;20426;-74
2022/11/04 00:29:35;;;;;;;7.75;2.80;;;12.40;99.90;;;;;;4998368;28;20042;-73
2022/11/04 00:34:46;;;;;;;5.88;3.08;;;12.50;99.90;;;;;;4994341;28;20046;-73
2022/11/04 00:37:11;;;;;;;5.13;2.40;;;12.40;99.90;;;;;;5025049;28;20345;-74
2022/11/04 00:39:37;;;;;;;8.18;2.88;;;12.40;99.90;;;;;;4994793;28;20476;-73
2022/11/04 00:42:03;;;;;;;6.63;3.00;;;12.40;99.90;;;;;;5024993;28;20125;-74
2022/11/04 00:44:29;;;;;;;9.43;3.13;;;12.40;99.90;;;;;;5008441;28;20050;-74
2022/11/04 00:46:55;;;;;;;7.00;2.80;;;12.40;99.90;;;;;;5018778;28;20039;-74
2022/11/04 00:49:20;;;;;;;7.15;2.75;;;12.40;99.90;;;;;;5009071;28;20129;-73
2022/11/04 00:51:46;;;;;;;7.40;2.95;;;12.40;99.90;;;;;;5024849;28;20546;-73
2022/11/04 00:54:12;;;;;;;6.15;2.67;;;12.40;99.90;;;;;;5028683;28;20057;-71
2022/11/04 00:56:41;;;;;;;7.13;2.92;;;12.40;99.90;;;;;;4979710;28;20050;-72
2022/11/04 00:59:07;;;;;;;7.68;3.20;;;12.40;99.90;;;;;;5012811;28;20060;-72
2022/11/04 01:01:32;;;;;;;8.70;2.90;;;12.30;99.90;;;;;;5027497;28;20054;-72
2022/11/04 01:04:01;;;;;;;6.65;3.40;;;12.30;99.90;;;;;;5028432;28;20073;-70
2022/11/04 01:06:27;;;;;;;6.75;3.00;;;12.30;99.90;;;;;;5012452;28;20144;-73
2022/11/04 01:08:57;;;;;;;15.40;3.83;;;12.30;99.90;;;;;;4996534;28;20057;-71
2022/11/04 01:11:28;;;;;;;7.60;3.25;;;12.30;99.90;;;;;;5013574;28;20056;-72
2022/11/04 01:13:57;;;;;;;6.22;3.00;;;12.30;99.90;;;;;;5012201;28;20084;-70
2022/11/04 01:16:26;;;;;;;8.20;2.92;;;12.30;99.90;;;;;;5027046;28;20348;-70
2022/11/04 01:18:52;;;;;;;5.78;3.28;;;12.30;99.90;;;;;;5025442;28;20103;-69
2022/11/04 01:21:20;;;;;;;7.45;3.03;;;12.30;99.90;;;;;;4993621;28;20057;-70
2022/11/04 01:23:46;;;;;;;;;;;12.20;99.90;;;;;;5011038;28;20046;-71
2022/11/04 01:26:20;;;;;;;8.18;3.00;;;12.20;99.90;;;;;;5008282;28;19919;-70
2022/11/04 01:28:45;;;;;;;4.47;2.50;;;12.20;99.90;;;;;;5026106;28;20061;-69
2022/11/04 01:31:16;;;;;;;7.55;3.30;;;12.20;99.90;;;;;;4994349;28;20045;-70
2022/11/04 01:33:42;;;;;;;7.93;3.05;;;12.20;99.90;;;;;;5009044;28;20050;-71
2022/11/04 01:36:09;;;;;;;6.18;2.88;;;12.20;99.90;;;;;;5010534;28;20484;-71
2022/11/04 01:38:35;;;;;;;6.50;3.08;;;12.20;99.90;;;;;;5025800;28;20507;-71
2022/11/04 01:41:00;;;;;;;6.80;3.17;;;12.20;99.90;;;;;;5008301;28;20145;-72
2022/11/04 01:43:48;;;;;;;9.57;3.67;;;12.20;99.90;;;;;;5021929;28;20045;-72
2022/11/04 01:46:29;;;;;;;9.55;3.35;;;12.20;99.90;;;;;;4990869;28;20042;-71
2022/11/04 01:49:10;;;;;;;8.60;3.78;;;12.10;99.90;;;;;;5006768;28;20519;-72
2022/11/04 01:51:36;;;;;;;8.63;3.88;;;12.10;99.90;;;;;;5040262;28;20042;-72
2022/11/04 01:54:02;;;;;;;7.30;3.10;;;12.10;99.90;;;;;;5018056;28;20057;-71
2022/11/04 01:56:28;;;;;;;6.00;3.20;;;12.10;99.90;;;;;;5027281;28;20057;-71
2022/11/04 01:58:55;;;;;;;6.82;3.50;;;12.10;99.90;;;;;;5024152;28;20391;-71
2022/11/04 02:01:21;;;;;;;9.65;3.90;;;12.00;99.90;;;;;;5009748;28;20053;-71
2022/11/04 02:06:59;;;;;;;7.80;4.03;;;11.80;99.90;;;;;;5029304;28;20137;-71
2022/11/04 02:09:29;;;;;;;11.05;4.47;;;11.70;99.90;;;;;;5023043;28;20049;-71
2022/11/04 02:14:39;;;;;;;9.23;3.75;;;11.50;99.90;;;;;;5005518;28;20138;-72
2022/11/04 02:17:17;;;;;;;7.63;4.25;;;11.50;99.90;;;;;;4991494;28;20133;-71
2022/11/04 02:20:10;;;;;;;9.68;3.92;;;11.40;99.90;;;;;;5008418;28;20056;-71
2022/11/04 02:23:19;;;;;;;9.43;4.07;;;11.40;99.90;;;;;;5009925;28;20050;-71
2022/11/04 02:26:22;;;;;;;10.98;4.43;;;11.30;99.90;;;;;;5023167;28;20686;-72
2022/11/04 02:29:22;;;;;;;10.63;4.78;;;11.30;99.90;;;;;;5001702;28;20464;-72
2022/11/04 02:31:56;;;;;;;11.75;4.40;;;11.30;99.90;;;;;;5011608;28;20053;-71
2022/11/04 02:34:24;;;;;;;7.13;4.00;;;11.40;99.90;;;;;;5025177;28;20068;-71
2022/11/04 02:36:53;;;;;;;13.18;4.70;;;11.30;99.90;;;;;;5008932;28;20049;-71
2022/11/04 02:39:32;;;;;;;7.57;4.35;;;11.20;99.90;;;;;;5010722;28;20041;-71
2022/11/04 02:42:33;;;;;;;10.32;4.40;;;11.20;99.90;;;;;;4991985;28;20050;-72
2022/11/04 02:45:10;;;;;;;9.60;4.88;;;11.20;99.90;;;;;;5002528;28;20364;-70
2022/11/04 02:47:36;;;;;;;8.07;4.50;;;11.20;99.90;;;;;;5009408;28;20046;-71
2022/11/04 02:50:06;;;;;;;13.18;4.45;;;11.30;99.90;;;;;;5022321;28;20113;-71
2022/11/04 02:52:51;;;;;;;7.63;4.45;;;11.20;99.90;;;;;;5008535;28;20073;-71
2022/11/04 02:55:30;;;;;;;10.23;4.70;;;11.10;99.90;;;;;;5041597;28;20064;-70
2022/11/04 02:57:57;;;;;;;7.80;4.30;;;11.10;99.90;;;;;;5008413;28;20057;-70
2022/11/04 03:00:22;;;;;;;13.10;4.15;;;11.20;99.90;;;;;;5025795;28;20069;-70
2022/11/04 03:02:56;;;;;;;10.27;4.80;;;11.20;99.90;;;;;;5007951;28;20045;-70
2022/11/04 03:05:27;;;;;;;6.22;3.92;;;11.20;99.90;;;;;;5009432;28;20042;-72
2022/11/04 03:07:54;;;;;;;7.20;4.53;;;11.20;99.90;;;;;;5021340;28;20492;-69
2022/11/04 03:10:33;;;;;;;9.40;4.63;;;11.30;99.90;;;;;;5005937;28;20038;-72
2022/11/04 03:13:10;;;;;;;9.82;4.60;;;11.30;99.90;;;;;;4999862;28;20132;-71
2022/11/04 03:15:37;;;;;;;8.38;4.45;;;11.30;99.90;;;;;;5024073;28;20051;-71
2022/11/04 03:18:15;;;;;;;8.77;4.60;;;11.20;99.90;;;;;;5022846;28;20057;-71
2022/11/04 03:20:41;;;;;;;9.40;4.30;;;11.20;99.90;;;;;;5009427;28;20146;-71
2022/11/04 05:27:11;;;;;;;3.38;1.30;;;11.20;99.90;;;;;;4980254;28;20042;-71
2022/11/04 05:29:37;;;;;;;2.58;1.20;;;11.10;99.90;;;;;;5022206;28;20057;-71
2022/11/04 05:32:03;;;;;;;4.50;1.30;;;11.20;99.90;;;;;;5012212;28;20419;-72
2022/11/04 05:34:29;;;;;;;2.20;1.45;;;11.10;99.90;;;;;;4990320;28;20046;-70
2022/11/04 05:50:29;;;;;;;4.22;1.58;;;11.00;99.90;;;;;;4991172;28;20164;-69
2022/11/04 05:52:57;;;;;;;2.15;1.40;;;10.90;99.90;;;;;;4981797;28;20544;-70
2022/11/04 05:55:23;;;;;;;3.03;1.65;;;10.90;99.90;;;;;;4972460;28;20449;-71
2022/11/04 05:57:49;;;;;;;2.70;1.40;;;10.90;99.90;;;;;;5001350;28;20181;-70
2022/11/04 06:00:15;;;;;;;1.52;1.30;;;10.80;99.90;;;;;;5018749;28;20129;-70
2022/11/04 06:02:41;;;;;;;2.17;1.55;;;10.80;99.90;;;;;;4990556;28;20538;-70
2022/11/04 06:05:07;;;;;;;4.80;1.65;;;10.70;99.90;;;;;;4990779;28;20665;-70
2022/11/04 06:07:33;;;;;;;2.58;1.50;;;10.80;99.90;;;;;;4990157;28;20050;-69
2022/11/04 06:09:59;;;;;;;2.42;1.60;;;10.70;99.90;;;;;;4990637;28;20574;-71
2022/11/04 06:12:25;;;;;;;4.55;2.13;;;10.70;99.90;;;;;;4984587;28;20051;-70
2022/11/04 06:14:50;;;;;;;2.58;1.65;;;10.60;99.90;;;;;;5006007;28;20463;-70
2022/11/04 06:17:18;;;;;;;2.97;1.60;;;10.60;99.90;;;;;;4990855;28;20046;-70
2022/11/04 06:19:44;;;;;;;3.88;1.80;;;10.70;99.90;;;;;;4990475;28;20053;-70
2022/11/04 06:22:13;;;;;;;4.03;1.80;;;10.60;99.90;;;;;;4972120;28;20047;-70
2022/11/04 06:24:39;;;;;;;3.33;1.80;;;10.60;99.90;;;;;;4985665;28;20046;-70
2022/11/04 06:27:05;;;;;;;3.13;1.70;;;10.60;99.90;;;;;;4990186;28;20038;-71
2022/11/04 06:29:31;;;;;;;3.15;1.92;;;10.60;99.90;;;;;;5008309;28;20084;-70
2022/11/04 06:31:58;;;;;;;2.90;1.65;;;10.60;99.90;;;;;;5009768;28;20046;-71
2022/11/04 06:34:24;;;;;;;3.35;1.63;;;10.60;99.90;;;;;;4989370;28;20050;-71
2022/11/04 06:36:50;;;;;;;5.20;2.30;;;10.60;99.90;;;;;;4992470;28;20065;-72
2022/11/04 06:39:16;;;;;;;4.93;1.92;;;10.60;99.90;;;;;;5010221;28;20049;-73
2022/11/04 06:41:41;;;;;;;3.20;2.10;;;10.60;99.90;;;;;;5004182;28;20042;-74
2022/11/04 06:44:07;;;;;;;2.67;1.70;;;10.50;99.90;;;;;;4992369;28;20056;-73
2022/11/04 06:46:36;;;;;;;5.55;2.22;;;10.50;99.90;;;;;;5025346;28;20050;-70
2022/11/04 06:49:03;;;;;;;4.63;2.03;;;10.50;99.90;;;;;;4991379;28;20132;-72
2022/11/04 06:51:29;;;;;;;3.92;2.28;;;10.50;99.90;;;;;;5009020;28;20056;-71
2022/11/04 06:53:55;;;;;;;4.18;2.05;;;10.50;99.90;;;;;;5011189;28;20050;-70
2022/11/04 06:56:20;;;;;;;3.17;2.25;;;10.40;99.90;;;;;;5008400;28;20085;-70
2022/11/04 06:58:47;;;;;;;4.75;1.95;;;10.30;99.90;;;;;;5023082;28;20136;-71
2022/11/04 07:01:14;;;;;;;4.80;2.10;;;10.30;99.90;;;;;;5006803;28;20054;-71
2022/11/04 07:03:40;;;;;;;4.18;2.40;;;10.30;99.90;;;;;;5006802;28;20073;-70
2022/11/04 07:06:07;;;;;;;3.92;1.80;;;10.30;99.90;;;;;;5010007;28;20080;-71
2022/11/04 07:08:33;;;;;;;2.60;1.88;;;10.30;99.90;;;;;;4993869;28;20053;-71
2022/11/04 07:10:58;;;;;;;3.33;2.08;;;10.30;99.90;;;;;;4992645;28;20056;-70
2022/11/04 07:13:24;;;;;;;3.25;2.00;;;10.30;99.90;;;;;;5009737;28;20050;-71
2022/11/04 07:15:50;;;;;;;3.53;2.30;;;10.30;99.90;;;;;;5025323;28;20452;-70
2022/11/04 07:18:16;;;;;;;4.57;2.00;;;10.30;99.90;;;;;;5009347;28;20050;-71
2022/11/04 07:20:42;;;;;;;3.63;2.20;;;10.30;99.90;;;;;;5024080;28;20058;-71
2022/11/04 07:23:07;;;;;;;3.70;2.15;;;10.40;99.90;;;;;;5025707;28;20076;-70
2022/11/04 07:25:33;;;;;;;3.08;1.80;;;10.50;99.90;;;;;;5013114;28;20046;-75
2022/11/04 07:27:59;;;;;;;3.42;1.77;;;10.50;99.90;;;;;;4980554;28;20049;-77
2022/11/04 07:30:26;;;;;;;7.38;2.30;;;10.50;99.90;;;;;;5011870;28;20128;-76
2022/11/04 07:32:52;;;;;;;11.35;2.55;;;10.50;99.90;;;;;;5030671;28;20072;-74
2022/11/04 07:35:17;;;;;;;4.75;2.13;;;10.60;99.90;;;;;;5014419;28;20046;-75
2022/11/04 07:37:43;;;;;;;5.43;2.13;;;10.50;99.90;;;;;;4997703;28;20045;-76
2022/11/04 07:40:09;;;;;;;4.47;2.08;;;10.50;99.90;;;;;;5023674;28;20081;-74
2022/11/04 07:42:35;;;;;;;4.15;2.05;;;10.50;99.90;;;;;;5013455;28;20757;-77
2022/11/04 07:45:01;;;;;;;5.03;1.95;;;10.50;99.90;;;;;;5012868;28;20116;-77
2022/11/04 07:47:29;;;;;;;3.95;1.60;;;10.50;99.90;;;;;;5013912;28;20048;-75
2022/11/04 07:49:55;;;;;;;3.95;1.60;;;10.60;99.90;;;;;;5013797;28;20097;-75
2022/11/04 07:52:21;;;;;;;6.32;2.10;;;10.70;99.90;;;;;;5026172;28;20125;-75
2022/11/04 07:54:46;;;;;;;3.42;1.90;;;10.80;99.90;;;;;;5018223;28;20156;-76
2022/11/04 07:57:12;;;;;;;3.72;2.20;;;10.80;99.90;;;;;;5011614;28;20069;-75
2022/11/04 07:59:38;;;;;;;4.00;2.10;;;10.90;99.90;;;;;;5028712;28;20056;-75
2022/11/04 08:02:05;;;;;;;5.05;1.85;;;10.90;99.90;;;;;;5013597;28;20050;-75
2022/11/04 08:04:31;;;;;;;7.45;2.15;;;11.00;99.90;;;;;;5022855;28;20042;-76
2022/11/04 08:06:57;;;;;;;7.40;2.38;;;11.00;99.90;;;;;;4993698;28;20141;-77
2022/11/04 08:09:23;;;;;;;7.03;2.42;;;11.10;99.90;;;;;;5029743;28;20045;-74
2022/11/04 08:11:48;;;;;;;7.63;2.40;;;11.10;99.90;;;;;;5007239;28;20054;-73
2022/11/04 08:14:14;;;;;;;7.75;2.00;;;11.10;99.90;;;;;;5012265;28;20081;-73
2022/11/04 08:16:40;;;;;;;6.43;2.42;;;11.10;99.90;;;;;;5011506;28;20054;-74
2022/11/04 08:19:06;;;;;;;6.15;1.90;;;11.20;99.90;;;;;;5039406;28;20054;-74
2022/11/04 08:21:32;;;;;;;8.38;2.30;;;11.20;99.90;;;;;;4995921;28;20049;-73
2022/11/04 08:23:58;;;;;;;3.67;2.03;;;11.20;99.90;;;;;;4996629;28;20046;-77
2022/11/04 08:26:24;;;;;;;6.20;2.60;;;11.20;99.90;;;;;;4980849;28;20479;-76
2022/11/04 08:28:50;;;;;;;6.30;2.25;;;11.30;99.90;;;;;;5027171;28;20069;-77
2022/11/04 08:31:27;;;;;;;11.05;2.20;;;11.30;99.90;;;;;;4997948;28;20739;-76
2022/11/04 08:33:53;;;;;;;5.50;2.20;;;11.40;99.90;;;;;;5022132;28;20076;-77
2022/11/04 08:36:24;;;;;;;4.50;2.00;;;11.40;99.90;;;;;;5028110;28;20107;-79
2022/11/04 08:38:50;;;;;;;7.93;2.33;;;11.50;99.90;;;;;;5013400;28;20111;-77
2022/11/04 08:41:18;;;;;;;4.65;2.22;;;11.50;99.90;;;;;;4998331;28;20046;-76
2022/11/04 08:43:44;;;;;;;6.55;2.70;;;11.50;99.90;;;;;;5013634;28;20078;-76
2022/11/04 08:46:10;;;;;;;4.47;2.20;;;11.50;99.90;;;;;;5014084;28;20073;-75
2022/11/04 08:48:37;;;;;;;7.00;2.13;;;11.60;99.90;;;;;;5031104;28;20468;-74
2022/11/04 08:51:03;;;;;;;4.95;2.05;;;11.60;99.90;;;;;;5027797;28;20054;-76
2022/11/04 08:53:29;;;;;;;6.07;2.00;;;11.60;99.90;;;;;;5014131;28;20049;-77
2022/11/04 08:55:54;;;;;;;5.03;2.22;;;11.60;99.90;;;;;;4994035;28;20046;-75
2022/11/04 08:58:21;;;;;;;6.45;2.10;;;11.60;99.90;;;;;;4994031;28;20042;-74
2022/11/04 09:00:46;;;;;;;4.63;1.83;;;11.50;99.90;;;;;;5012775;28;20097;-76
2022/11/04 09:03:12;;;;;;;4.13;1.67;;;11.50;99.90;;;;;;5003503;28;20125;-74
2022/11/04 09:05:43;;;;;;;7.60;3.15;;;11.40;99.90;;;;;;5028697;28;20050;-76
2022/11/04 09:08:13;;;;;;;5.20;1.85;;;11.50;99.90;;;;;;5009176;28;20050;-75
2022/11/04 09:10:46;;;;;;;7.63;2.10;;;11.50;99.90;;;;;;5014529;28;20746;-76
2022/11/04 09:13:11;;;;;;;5.10;1.70;;;11.40;99.90;;;;;;4996344;28;20117;-77
2022/11/04 09:15:37;;;;;;;6.72;1.98;;;11.40;99.90;;;;;;5012531;28;20446;-73
2022/11/04 09:18:03;;;;;;;5.40;1.90;;;11.50;99.90;;;;;;5011941;28;20056;-75
2022/11/04 09:20:30;;;;;;;8.13;1.83;;;11.50;99.90;;;;;;5012234;28;20156;-76
2022/11/04 09:22:56;;;;;;;7.07;2.08;;;11.60;99.90;;;;;;5012909;28;20060;-74
2022/11/04 09:25:25;;;;;;;4.13;1.80;;;11.60;99.90;;;;;;5010243;28;20046;-74
2022/11/04 09:27:51;;;;;;;4.85;1.77;;;11.60;99.90;;;;;;5020268;28;20060;-74
2022/11/04 09:30:19;;;;;;;5.15;1.83;;;11.50;99.90;;;;;;5043752;28;20049;-74
2022/11/04 09:32:47;;;;;;;6.20;2.00;;;11.50;99.90;;;;;;4996006;28;20053;-74
2022/11/04 09:35:15;;;;;;;;;;;11.50;99.90;;;;;;5011777;28;20057;-74
2022/11/04 09:37:41;;;;;;;4.15;1.92;;;11.50;99.90;;;;;;5028989;28;19924;-75
2022/11/04 09:40:19;;;;;;;6.25;2.00;;;11.50;99.90;;;;;;5011723;28;20042;-74
2022/11/04 09:43:05;;;;;;;6.65;1.90;;;11.50;99.90;;;;;;5009765;28;20058;-74
2022/11/04 09:45:31;;;;;;;4.45;1.80;;;11.40;99.90;;;;;;4983887;28;20151;-74
2022/11/04 09:48:03;;;;;;;6.88;2.00;;;11.40;99.90;;;;;;5010935;28;20484;-74
2022/11/04 09:50:44;;;;;;;9.90;2.30;;;11.40;99.90;;;;;;5010309;28;20042;-74
2022/11/04 09:53:18;;;;;;;5.28;1.77;;;11.40;99.90;;;;;;5024815;28;20185;-73
2022/11/04 09:55:51;;;;;;;6.13;1.92;;;11.40;99.90;;;;;;5013365;28;20050;-74
2022/11/04 09:58:17;;;;;;;8.00;1.80;;;11.50;99.90;;;;;;4979725;28;20464;-74
2022/11/04 10:00:46;;;;;;;6.65;2.08;;;11.40;99.90;;;;;;5011456;28;20061;-74
2022/11/04 10:03:38;;;;;;;6.70;1.88;;;11.40;99.90;;;;;;5009681;28;20042;-73
2022/11/04 10:06:29;;;;;;;9.38;2.42;;;11.50;99.90;;;;;;5045753;28;20566;-74
2022/11/04 10:08:59;;;;;;;6.55;2.22;;;11.40;99.90;;;;;;5015542;28;20121;-74
2022/11/04 10:11:42;;;;;;;6.60;1.70;;;11.50;99.90;;;;;;5014292;28;20046;-73
2022/11/04 10:14:40;;;;;;;6.55;2.47;;;11.50;99.90;;;;;;4998560;28;20141;-74
2022/11/04 10:17:21;;;;;;;4.38;2.03;;;11.60;99.90;;;;;;5013707;28;20049;-74
2022/11/04 10:19:58;;;;;;;9.02;2.13;;;11.70;99.90;;;;;;5013276;28;20053;-74
2022/11/04 10:22:47;;;;;;;8.18;2.30;;;11.80;99.90;;;;;;5007473;28;20060;-74
2022/11/04 10:25:14;;;;;;;5.88;2.13;;;11.80;99.90;;;;;;5023233;28;20053;-73
2022/11/04 10:27:43;;;;;;;5.47;2.10;;;11.80;99.90;;;;;;5011071;28;20076;-74
2022/11/04 10:30:18;;;;;;;6.47;2.20;;;11.80;99.90;;;;;;5010722;28;20042;-74
2022/11/04 10:32:47;;;;;;;5.88;2.30;;;11.70;99.90;;;;;;5025498;28;20054;-71
2022/11/04 10:35:33;;;;;;;7.07;2.97;;;11.70;99.90;;;;;;5043226;28;20078;-73
2022/11/04 10:38:28;;;;;;;5.88;2.50;;;11.60;99.90;;;;;;5010081;28;20448;-74
2022/11/04 10:40:54;;;;;;;5.75;2.50;;;11.70;99.90;;;;;;5001445;28;20084;-74
2022/11/04 10:43:28;;;;;;;5.93;2.72;;;11.70;99.90;;;;;;5020575;28;20057;-73
2022/11/04 10:46:14;;;;;;;7.65;3.05;;;11.70;99.90;;;;;;5006320;28;20054;-73
2022/11/04 10:48:47;;;;;;;9.73;3.00;;;11.70;99.90;;;;;;5010493;28;20069;-75
2022/11/04 10:51:19;;;;;;;5.45;2.55;;;11.60;99.90;;;;;;5004054;28;20050;-73
2022/11/04 10:53:45;;;;;;;7.30;3.13;;;11.50;99.90;;;;;;5027808;28;20076;-74
2022/11/04 10:56:23;;;;;;;6.15;3.38;;;11.50;99.90;;;;;;5007577;28;20049;-74
2022/11/04 10:58:49;;;;;;;5.50;3.03;;;11.50;99.90;;;;;;4994054;28;20052;-73
2022/11/04 11:01:22;;;;;;;8.35;3.65;;;11.50;99.90;;;;;;5010660;28;20046;-73
2022/11/04 11:03:47;;;;;;;5.50;2.97;;;11.50;99.90;;;;;;5028620;28;20787;-74
2022/11/04 11:06:31;;;;;;;8.98;2.92;;;11.50;99.90;;;;;;5013025;28;20069;-74
2022/11/04 11:09:13;;;;;;;10.55;3.10;;;11.50;99.90;;;;;;5027086;28;20542;-74
2022/11/04 11:11:40;;;;;;;6.15;3.20;;;11.60;99.90;;;;;;4990042;28;20042;-73
2022/11/04 11:14:26;;;;;;;7.53;3.38;;;11.60;99.90;;;;;;5027985;28;20073;-73
2022/11/04 11:16:52;;;;;;;8.57;2.92;;;11.70;99.90;;;;;;4994632;28;20483;-73
2022/11/04 11:19:20;;;;;;;6.95;3.47;;;11.70;99.90;;;;;;5029524;28;20060;-73
2022/11/04 11:21:50;;;;;;;9.00;3.60;;;11.60;99.90;;;;;;5013598;28;20053;-74
2022/11/04 11:24:24;;;;;;;7.97;3.00;;;11.70;99.90;;;;;;5013834;28;20056;-73
2022/11/04 11:26:58;;;;;;;5.45;2.70;;;11.70;99.90;;;;;;5012753;28;20041;-74
2022/11/04 11:29:30;;;;;;;6.75;3.00;;;11.70;99.90;;;;;;5030417;28;20160;-74
2022/11/04 11:31:57;;;;;;;6.47;3.05;;;11.80;99.90;;;;;;5030192;28;20056;-74
2022/11/04 11:34:33;;;;;;;6.50;2.50;;;11.80;99.90;;;;;;5027906;28;20116;-73
2022/11/04 11:37:02;;;;;;;7.72;2.90;;;11.70;99.90;;;;;;5034703;28;20042;-73
2022/11/04 11:39:29;;;;;;;5.15;2.53;;;11.60;99.90;;;;;;4991036;28;20085;-71
2022/11/04 11:42:02;;;;;;;4.97;2.40;;;11.60;99.90;;;;;;5012680;28;20052;-74
2022/11/04 11:44:46;;;;;;;6.68;2.83;;;11.70;99.90;;;;;;5013864;28;20046;-76
2022/11/04 11:47:37;;;;;;;3.75;2.30;;;11.60;99.90;;;;;;4993185;28;20452;-76
2022/11/04 11:50:17;;;;;;;4.85;2.60;;;11.60;99.90;;;;;;5011691;28;20041;-75
2022/11/04 11:52:47;;;;;;;5.28;2.63;;;11.70;99.90;;;;;;5045073;28;20131;-72
2022/11/04 11:55:42;;;;;;;8.45;2.80;;;11.50;99.90;;;;;;5007248;28;20053;-73
2022/11/04 11:58:32;;;;;;;11.27;3.13;;;11.60;99.90;;;;;;5002699;28;20704;-74
2022/11/04 12:01:05;;;;;;;12.20;3.67;;;11.50;99.90;;;;;;5000269;28;20120;-74
2022/11/04 12:03:45;;;;;;;9.88;3.50;;;11.60;99.90;;;;;;5024218;28;20077;-74
2022/11/04 12:06:30;;;;;;;12.10;4.22;;;11.60;99.90;;;;;;5012557;28;20053;-74
2022/11/04 12:09:31;;;;;;;10.95;3.85;;;11.70;99.90;;;;;;5012524;28;20048;-74
2022/11/04 12:12:09;;;;;;;10.25;4.28;;;11.80;99.90;;;;;;5012134;28;20353;-73
2022/11/04 12:14:47;;;;;;;8.40;3.20;;;12.00;99.90;;;;;;4996539;28;20490;-75
2022/11/04 12:17:38;;;;;;;9.50;3.42;;;12.00;99.90;;;;;;5012226;28;20050;-73
2022/11/04 12:20:35;;;;;;;7.75;2.92;;;12.00;99.90;;;;;;5023623;28;20119;-73
2022/11/04 12:23:11;;;;;;;6.22;3.30;;;12.00;99.90;;;;;;5014269;28;20038;-74
2022/11/04 12:25:45;;;;;;;11.57;3.35;;;11.80;99.90;;;;;;5012049;28;20053;-73
2022/11/04 12:28:18;;;;;;;8.55;3.20;;;11.90;99.90;;;;;;5028412;28;20050;-73
2022/11/04 12:31:29;;;;;;;9.88;3.30;;;12.00;99.90;;;;;;5025656;28;20046;-74
2022/11/04 12:33:55;;;;;;;6.60;3.15;;;11.90;99.90;;;;;;5006254;28;20145;-74
2022/11/04 12:36:52;;;;;;;8.23;2.88;;;12.00;99.90;;;;;;5022009;28;20141;-74
2022/11/04 12:39:33;;;;;;;5.83;3.70;;;12.00;99.90;;;;;;5008972;28;20053;-74
2022/11/04 12:42:23;;;;;;;10.15;4.25;;;12.20;99.90;;;;;;5043497;28;20064;-73
2022/11/04 12:45:04;;;;;;;7.50;4.40;;;12.40;99.90;;;;;;5011225;28;20053;-74
2022/11/04 12:47:45;;;;;;;5.60;2.85;;;12.60;99.90;;;;;;5023693;28;20197;-73
2022/11/04 12:50:17;;;;;;;7.75;3.13;;;12.60;99.90;;;;;;5025752;28;20384;-73
2022/11/04 12:52:45;;;;;;;10.82;2.92;;;12.50;99.90;;;;;;5009327;28;20148;-72
2022/11/04 12:55:55;;;;;;;10.75;2.55;;;12.50;99.90;;;;;;5011625;28;20762;-73
2022/11/04 12:58:21;;;;;;;4.70;2.45;;;12.60;99.90;;;;;;5004171;28;20046;-73
2022/11/04 13:00:49;;;;;;;8.63;2.88;;;12.70;99.90;;;;;;5010123;28;20112;-73
2022/11/04 13:03:35;;;;;;;4.82;2.00;;;12.50;99.90;;;;;;5011445;28;20353;-73
2022/11/04 13:06:09;;;;;;;17.17;3.53;;;12.50;99.90;;;;;;5009560;28;20037;-73
2022/11/04 13:08:56;;;;;;;6.97;2.47;;;12.40;99.90;;;;;;5011233;28;20042;-73
2022/11/04 13:11:27;;;;;;;13.27;6.18;;;12.40;99.90;;;;;;5013571;28;20034;-74
2022/11/04 13:13:55;;;;;;;10.68;4.00;;;12.30;99.90;;;;;;5011148;28;20038;-74
2022/11/04 13:16:21;;;;;;;8.35;2.80;;;12.10;99.90;;;;;;5009540;28;20675;-74
2022/11/04 13:18:50;;;;;;;8.05;2.30;;;12.20;99.90;;;;;;5010908;28;20048;-74
2022/11/04 13:21:22;;;;;;;7.22;2.22;;;12.20;99.90;;;;;;4993826;28;20056;-74
2022/11/04 13:23:56;;;;;;;9.77;2.70;;;12.10;99.90;;;;;;5000959;28;20259;-74
2022/11/04 13:26:25;;;;;;;4.53;2.22;;;12.00;99.90;;;;;;5010882;28;20053;-74
2022/11/04 13:29:06;;;;;;;7.18;2.72;;;11.90;99.90;;;;;;5010741;28;20116;-74
2022/11/04 13:31:44;;;;;;;7.45;2.40;;;12.00;99.90;;;;;;5006153;28;20093;-74
2022/11/04 13:34:26;;;;;;;7.70;2.55;;;12.00;99.90;;;;;;5008877;28;20051;-74
2022/11/04 13:37:29;;;;;;;7.80;3.60;;;12.00;99.90;;;;;;4995497;28;20077;-73
2022/11/04 13:40:02;;;;;;;10.27;2.97;;;12.10;99.90;;;;;;5019983;28;20460;-74
2022/11/04 13:42:46;;;;;;;10.02;2.83;;;12.30;99.90;;;;;;5022811;28;20052;-73
2022/11/04 13:45:13;;;;;;;5.90;2.58;;;12.40;99.90;;;;;;5026462;28;20605;-75
2022/11/04 13:47:52;;;;;;;7.50;2.42;;;12.50;99.90;;;;;;5024003;28;20068;-73
2022/11/04 13:50:33;;;;;;;5.68;2.30;;;12.60;99.90;;;;;;4995018;28;20046;-73
2022/11/04 13:52:58;;;;;;;8.15;2.88;;;12.70;99.90;;;;;;5025894;28;20479;-74
2022/11/04 13:55:24;;;;;;;6.32;2.30;;;12.70;99.90;;;;;;5020278;28;20053;-73
2022/11/04 13:57:57;;;;;;;6.05;2.42;;;12.60;99.90;;;;;;4994369;28;20042;-74
2022/11/04 14:00:25;;;;;;;5.82;2.45;;;12.50;99.90;;;;;;5027428;28;20530;-74
2022/11/04 14:03:14;;;;;;;14.88;8.48;;;12.40;99.90;;;;;;4994140;28;20046;-73
2022/11/04 14:05:39;;;;;;;18.85;12.63;;;12.40;99.90;;;;;;4973452;28;20042;-73
2022/11/04 14:08:16;;;;;;;7.45;3.80;;;12.30;99.90;;;;;;5009894;28;20037;-73
2022/11/04 14:10:42;;;;;;;5.60;2.75;;;12.20;99.90;;;;;;5023223;28;20050;-74
2022/11/04 14:13:27;;;;;;;11.20;2.58;;;12.20;99.90;;;;;;5008811;28;20050;-73
2022/11/04 14:16:23;;;;;;;9.05;2.70;;;12.20;99.90;;;;;;5005302;28;20495;-74
2022/11/04 14:18:51;;;;;;;6.88;2.45;;;12.20;99.90;;;;;;5023899;28;20482;-74
2022/11/04 14:21:18;;;;;;;5.90;2.33;;;12.00;99.90;;;;;;5010860;28;20046;-74
2022/11/04 14:23:52;;;;;;;5.70;2.38;;;12.00;99.90;;;;;;5010720;28;20038;-74
2022/11/04 14:26:20;;;;;;;4.53;2.55;;;11.90;99.90;;;;;;5009636;28;20053;-73
2022/11/04 14:28:58;;;;;;;9.57;2.45;;;11.90;99.90;;;;;;5023386;28;20054;-73
2022/11/04 14:31:54;;;;;;;7.25;2.63;;;11.90;99.90;;;;;;5010074;28;20045;-73
2022/11/04 14:34:35;;;;;;;6.40;2.60;;;12.00;99.90;;;;;;4988949;28;20045;-74
2022/11/04 14:37:03;;;;;;;6.50;2.83;;;12.00;99.90;;;;;;5011017;28;20412;-74
2022/11/04 14:39:33;;;;;;;6.53;2.30;;;12.00;99.90;;;;;;5017417;28;20434;-74
2022/11/04 14:42:02;;;;;;;7.30;2.70;;;12.00;99.90;;;;;;5015423;28;20069;-74
2022/11/04 14:44:42;;;;;;;5.55;2.40;;;12.00;99.90;;;;;;5025183;28;20085;-73
2022/11/04 14:47:19;;;;;;;6.50;3.25;;;12.00;99.90;;;;;;5004085;28;20107;-74
2022/11/04 14:49:49;;;;;;;5.63;2.53;;;11.90;99.90;;;;;;5027440;28;20052;-73
2022/11/04 14:52:20;;;;;;;10.23;5.60;;;11.90;99.90;;;;;;5008716;28;20061;-72
2022/11/04 14:54:46;;;;;;;7.75;3.38;;;11.90;99.90;;;;;;5011097;28;20042;-74
2022/11/04 14:57:12;;;;;;;6.60;2.70;;;11.90;99.90;;;;;;5010622;28;20128;-73
2022/11/04 14:59:38;;;;;;;4.70;2.53;;;11.90;99.90;;;;;;5010479;28;20115;-73
2022/11/04 15:02:12;;;;;;;7.90;2.70;;;11.90;99.90;;;;;;5022438;28;20050;-74
2022/11/04 15:04:37;;;;;;;5.72;2.55;;;11.80;99.90;;;;;;5010809;28;20060;-73
2022/11/04 15:07:03;;;;;;;7.70;2.58;;;11.90;99.90;;;;;;5009519;28;20042;-73
2022/11/04 15:09:48;;;;;;;6.78;2.42;;;11.90;99.90;;;;;;5004476;28;20060;-74
2022/11/04 15:15:01;;;;;;;8.27;2.85;;;11.90;99.90;;;;;;4995598;28;20482;-74
2022/11/04 15:17:31;;;;;;;6.35;2.67;;;11.90;99.90;;;;;;5009497;28;20046;-74
2022/11/04 15:19:59;;;;;;;6.53;2.97;;;11.90;99.90;;;;;;5010676;28;20127;-75
2022/11/04 15:22:25;;;;;;;6.72;2.45;;;11.90;99.90;;;;;;5009928;28;20046;-74
2022/11/04 15:24:50;;;;;;;3.63;2.30;;;11.90;99.90;;;;;;5023131;28;20057;-75
2022/11/04 15:27:17;;;;;;;4.85;2.45;;;12.00;99.90;;;;;;5008937;28;20049;-74
2022/11/04 15:30:00;;;;;;;6.13;3.25;;;12.00;99.90;;;;;;5010360;28;20073;-75
2022/11/04 15:32:26;;;;;;;6.43;3.28;;;11.90;99.90;;;;;;5022419;28;20460;-75
2022/11/04 15:34:52;;;;;;;7.63;3.92;;;11.90;99.90;;;;;;5011313;28;20053;-75
2022/11/04 15:37:18;;;;;;;7.30;3.30;;;11.90;99.90;;;;;;4996066;28;20045;-74
2022/11/04 15:39:45;;;;;;;5.30;3.13;;;11.90;99.90;;;;;;5017483;28;20536;-74
2022/11/04 15:44:59;;;;;;;6.82;3.00;;;11.80;99.90;;;;;;5024469;28;20042;-75
2022/11/04 15:47:27;;;;;;;9.35;3.70;;;11.80;99.90;;;;;;5015318;28;20049;-74
2022/11/04 15:49:53;;;;;;;5.68;2.92;;;11.80;99.90;;;;;;5009440;28;20070;-74
2022/11/04 15:52:22;;;;;;;5.72;3.17;;;11.80;99.90;;;;;;5014023;28;20045;-75
2022/11/04 15:54:56;;;;;;;;;;;11.70;99.90;;;;;;5013195;28;20065;-74